sensor_id;sensor_type;location;lat;lon;timestamp;pressure;altitude;pressure_sealevel;temperature;humidity
7018;BME280;3549;42.162;24.726;2023-04-10T00:01:55;47626.72;;;-141.97;46.32
7018;BME280;3549;42.162;24.726;2023-04-10T00:04:20;47672.84;;;-141.97;46.35
7018;BME280;3549;42.162;24.726;2023-04-10T00:06:46;47632.47;;;-141.97;47.05
7018;BME280;3549;42.162;24.726;2023-04-10T00:09:13;47617.09;;;-141.97;46.99
7018;BME280;3549;42.162;24.726;2023-04-10T00:11:38;47657.47;;;-141.97;47.65
7018;BME280;3549;42.162;24.726;2023-04-10T00:14:03;47619.03;;;-141.97;47.99
7018;BME280;3549;42.162;24.726;2023-04-10T00:16:29;47609.41;;;-141.97;48.12
7018;BME280;3549;42.162;24.726;2023-04-10T00:18:54;47620.94;;;-141.97;47.99
7018;BME280;3549;42.162;24.726;2023-04-10T00:21:20;47634.41;;;-141.97;48.29
7018;BME280;3549;42.162;24.726;2023-04-10T00:23:45;47676.69;;;-141.97;48.56
7018;BME280;3549;42.162;24.726;2023-04-10T00:26:11;47557.53;;;-141.97;48.35
7018;BME280;3549;42.162;24.726;2023-04-10T00:28:36;47738.19;;;-141.97;48.52
7018;BME280;3549;42.162;24.726;2023-04-10T00:31:03;47765.09;;;-141.97;48.71
7018;BME280;3549;42.162;24.726;2023-04-10T00:33:29;47772.78;;;-141.97;48.41
7018;BME280;3549;42.162;24.726;2023-04-10T00:35:54;47624.78;;;-141.97;48.89
7018;BME280;3549;42.162;24.726;2023-04-10T00:38:20;47674.78;;;-141.97;48.31
7018;BME280;3549;42.162;24.726;2023-04-10T00:40:45;47657.47;;;-141.97;48.58
7018;BME280;3549;42.162;24.726;2023-04-10T00:43:10;47609.41;;;-141.97;49.25
7018;BME280;3549;42.162;24.726;2023-04-10T00:45:36;47672.84;;;-141.97;49.18
7018;BME280;3549;42.162;24.726;2023-04-10T00:48:02;47619.03;;;-141.97;48.96
7018;BME280;3549;42.162;24.726;2023-04-10T00:50:27;47642.09;;;-141.97;48.89
7018;BME280;3549;42.162;24.726;2023-04-10T00:52:53;47657.47;;;-141.97;49.51
7018;BME280;3549;42.162;24.726;2023-04-10T00:55:18;47613.25;;;-141.97;48.93
7018;BME280;3549;42.162;24.726;2023-04-10T00:57:45;47595.97;;;-141.97;48.93
7018;BME280;3549;42.162;24.726;2023-04-10T01:00:13;47680.53;;;-141.97;48.70
7018;BME280;3549;42.162;24.726;2023-04-10T01:02:38;47569.06;;;-141.97;48.93
7018;BME280;3549;42.162;24.726;2023-04-10T01:05:04;47780.47;;;-141.97;49.13
7018;BME280;3549;42.162;24.726;2023-04-10T01:10:33;47649.78;;;-141.97;50.88
7018;BME280;3549;42.162;24.726;2023-04-10T01:13:15;47588.28;;;-141.97;51.62
7018;BME280;3549;42.162;24.726;2023-04-10T01:16:16;47653.63;;;-141.97;53.05
7018;BME280;3549;42.162;24.726;2023-04-10T01:19:00;47651.69;;;-141.97;55.30
7018;BME280;3549;42.162;24.726;2023-04-10T01:21:30;47730.50;;;-141.97;55.75
7018;BME280;3549;42.162;24.726;2023-04-10T01:29:08;47649.78;;;-141.97;55.90
7018;BME280;3549;42.162;24.726;2023-04-10T01:31:41;47653.63;;;-141.97;56.78
7018;BME280;3549;42.162;24.726;2023-04-10T01:34:32;47661.31;;;-141.97;57.42
7018;BME280;3549;42.162;24.726;2023-04-10T01:37:05;47638.25;;;-141.97;57.14
7018;BME280;3549;42.162;24.726;2023-04-10T01:39:36;47649.78;;;-141.97;57.36
7018;BME280;3549;42.162;24.726;2023-04-10T01:42:04;47638.25;;;-141.97;57.71
7018;BME280;3549;42.162;24.726;2023-04-10T01:44:31;47638.25;;;-141.97;58.00
7018;BME280;3549;42.162;24.726;2023-04-10T01:46:59;47630.56;;;-141.97;58.24
7018;BME280;3549;42.162;24.726;2023-04-10T01:49:27;47667.06;;;-141.97;58.91
7018;BME280;3549;42.162;24.726;2023-04-10T01:51:54;47647.84;;;-141.97;59.20
7018;BME280;3549;42.162;24.726;2023-04-10T01:54:27;47665.16;;;-141.97;59.56
7018;BME280;3549;42.162;24.726;2023-04-10T01:56:53;47622.88;;;-141.97;59.98
7018;BME280;3549;42.162;24.726;2023-04-10T01:59:19;47611.34;;;-141.97;60.26
7018;BME280;3549;42.162;24.726;2023-04-10T02:01:44;47626.72;;;-141.97;59.92
7018;BME280;3549;42.162;24.726;2023-04-10T02:04:10;47603.66;;;-141.97;59.95
7018;BME280;3549;42.162;24.726;2023-04-10T02:09:24;47684.38;;;-141.97;60.55
7018;BME280;3549;42.162;24.726;2023-04-10T02:12:05;47626.72;;;-141.97;60.41
7018;BME280;3549;42.162;24.726;2023-04-10T02:14:32;47680.53;;;-141.97;60.53
7018;BME280;3549;42.162;24.726;2023-04-10T02:17:01;47559.44;;;-141.97;59.91
7018;BME280;3549;42.162;24.726;2023-04-10T02:19:27;47553.69;;;-141.97;59.20
7018;BME280;3549;42.162;24.726;2023-04-10T02:21:55;47624.78;;;-141.97;59.20
7018;BME280;3549;42.162;24.726;2023-04-10T02:24:22;47738.19;;;-141.97;59.03
7018;BME280;3549;42.162;24.726;2023-04-10T02:26:49;47630.56;;;-141.97;59.39
7018;BME280;3549;42.162;24.726;2023-04-10T02:29:16;47647.84;;;-141.97;59.12
7018;BME280;3549;42.162;24.726;2023-04-10T02:31:42;47630.56;;;-141.97;58.56
7018;BME280;3549;42.162;24.726;2023-04-10T02:34:08;47638.25;;;-141.97;58.69
7018;BME280;3549;42.162;24.726;2023-04-10T02:36:37;47672.84;;;-141.97;59.61
7018;BME280;3549;42.162;24.726;2023-04-10T02:39:04;47565.22;;;-141.97;60.00
7018;BME280;3549;42.162;24.726;2023-04-10T02:41:29;47619.03;;;-141.97;60.55
7018;BME280;3549;42.162;24.726;2023-04-10T02:43:55;47659.38;;;-141.97;62.21
7018;BME280;3549;42.162;24.726;2023-04-10T02:46:20;47622.88;;;-141.97;62.84
7018;BME280;3549;42.162;24.726;2023-04-10T02:48:46;47676.69;;;-141.97;64.29
7018;BME280;3549;42.162;24.726;2023-04-10T02:51:12;47684.38;;;-141.97;65.05
7018;BME280;3549;42.162;24.726;2023-04-10T02:53:37;47665.16;;;-141.97;64.89
7018;BME280;3549;42.162;24.726;2023-04-10T02:56:03;47599.81;;;-141.97;66.10
7018;BME280;3549;42.162;24.726;2023-04-10T02:58:30;47640.16;;;-141.97;67.74
7018;BME280;3549;42.162;24.726;2023-04-10T03:00:56;47711.28;;;-141.97;68.18
7018;BME280;3549;42.162;24.726;2023-04-10T03:03:22;47630.56;;;-141.97;67.75
7018;BME280;3549;42.162;24.726;2023-04-10T03:05:47;47580.59;;;-141.97;68.08
7018;BME280;3549;42.162;24.726;2023-04-10T03:08:14;47580.59;;;-141.97;67.49
7018;BME280;3549;42.162;24.726;2023-04-10T03:10:41;47661.31;;;-141.97;66.94
7018;BME280;3549;42.162;24.726;2023-04-10T03:13:07;47632.47;;;-141.97;66.73
7018;BME280;3549;42.162;24.726;2023-04-10T03:15:32;47672.84;;;-141.97;66.00
7018;BME280;3549;42.162;24.726;2023-04-10T03:17:58;47638.25;;;-141.97;65.82
7018;BME280;3549;42.162;24.726;2023-04-10T03:20:23;47544.06;;;-141.97;65.53
7018;BME280;3549;42.162;24.726;2023-04-10T03:22:49;47674.78;;;-141.97;65.10
7018;BME280;3549;42.162;24.726;2023-04-10T03:25:15;47638.25;;;-141.97;65.08
7018;BME280;3549;42.162;24.726;2023-04-10T03:27:40;47669.00;;;-141.97;64.51
7018;BME280;3549;42.162;24.726;2023-04-10T03:30:06;47653.63;;;-141.97;64.24
7018;BME280;3549;42.162;24.726;2023-04-10T03:32:32;47657.47;;;-141.97;64.35
7018;BME280;3549;42.162;24.726;2023-04-10T03:34:57;47657.47;;;-141.97;64.88
7018;BME280;3549;42.162;24.726;2023-04-10T03:37:23;47628.63;;;-141.97;64.61
7018;BME280;3549;42.162;24.726;2023-04-10T03:39:49;47649.78;;;-141.97;64.71
7018;BME280;3549;42.162;24.726;2023-04-10T03:42:15;47628.63;;;-141.97;64.29
7018;BME280;3549;42.162;24.726;2023-04-10T03:44:40;47703.59;;;-141.97;64.47
7018;BME280;3549;42.162;24.726;2023-04-10T03:47:05;47682.47;;;-141.97;64.94
7018;BME280;3549;42.162;24.726;2023-04-10T03:49:31;47526.75;;;-141.97;65.63
7018;BME280;3549;42.162;24.726;2023-04-10T03:51:56;47626.72;;;-141.97;66.97
7018;BME280;3549;42.162;24.726;2023-04-10T03:54:21;47634.41;;;-141.97;68.52
7018;BME280;3549;42.162;24.726;2023-04-10T03:56:47;47634.41;;;-141.97;68.64
7018;BME280;3549;42.162;24.726;2023-04-10T03:59:12;47642.09;;;-141.97;69.19
7018;BME280;3549;42.162;24.726;2023-04-10T04:01:37;47642.09;;;-141.97;70.36
7018;BME280;3549;42.162;24.726;2023-04-10T04:04:04;47615.19;;;-141.97;70.51
7018;BME280;3549;42.162;24.726;2023-04-10T04:06:30;47638.25;;;-141.97;71.02
7018;BME280;3549;42.162;24.726;2023-04-10T04:08:56;47622.88;;;-141.97;71.05
7018;BME280;3549;42.162;24.726;2023-04-10T04:11:21;47688.22;;;-141.97;71.28
7018;BME280;3549;42.162;24.726;2023-04-10T04:13:46;47649.78;;;-141.97;71.80
7018;BME280;3549;42.162;24.726;2023-04-10T04:16:12;47622.88;;;-141.97;71.62
7018;BME280;3549;42.162;24.726;2023-04-10T04:18:37;47670.91;;;-141.97;71.86
7018;BME280;3549;42.162;24.726;2023-04-10T04:21:03;47657.47;;;-141.97;71.66
7018;BME280;3549;42.162;24.726;2023-04-10T04:23:28;47647.84;;;-141.97;71.66
7018;BME280;3549;42.162;24.726;2023-04-10T04:25:54;47615.19;;;-141.97;71.91
7018;BME280;3549;42.162;24.726;2023-04-10T04:28:21;47640.16;;;-141.97;72.53
7018;BME280;3549;42.162;24.726;2023-04-10T04:30:47;47649.78;;;-141.97;72.31
7018;BME280;3549;42.162;24.726;2023-04-10T04:33:12;47669.00;;;-141.97;71.51
7018;BME280;3549;42.162;24.726;2023-04-10T04:35:38;47595.97;;;-141.97;70.53
7018;BME280;3549;42.162;24.726;2023-04-10T04:38:03;47653.63;;;-141.97;70.00
7018;BME280;3549;42.162;24.726;2023-04-10T04:40:30;47674.78;;;-141.97;68.81
7018;BME280;3549;42.162;24.726;2023-04-10T04:42:55;47657.47;;;-141.97;68.21
7018;BME280;3549;42.162;24.726;2023-04-10T04:45:21;47657.47;;;-141.97;68.09
7018;BME280;3549;42.162;24.726;2023-04-10T04:47:46;47611.34;;;-141.97;67.93
7018;BME280;3549;42.162;24.726;2023-04-10T04:50:11;47665.16;;;-141.97;67.32
7018;BME280;3549;42.162;24.726;2023-04-10T04:52:37;47680.53;;;-141.97;67.10
7018;BME280;3549;42.162;24.726;2023-04-10T04:55:03;47672.84;;;-141.97;68.71
7018;BME280;3549;42.162;24.726;2023-04-10T04:57:28;47630.56;;;-141.97;68.61
7018;BME280;3549;42.162;24.726;2023-04-10T04:59:54;47632.47;;;-141.97;68.02
7018;BME280;3549;42.162;24.726;2023-04-10T05:02:19;47665.16;;;-141.97;67.82
7018;BME280;3549;42.162;24.726;2023-04-10T05:04:47;47653.63;;;-141.97;66.67
7018;BME280;3549;42.162;24.726;2023-04-10T05:07:12;47592.13;;;-141.97;66.45
7018;BME280;3549;42.162;24.726;2023-04-10T05:09:37;47634.41;;;-141.97;65.95
7018;BME280;3549;42.162;24.726;2023-04-10T05:12:03;47636.31;;;-141.97;65.77
7018;BME280;3549;42.162;24.726;2023-04-10T05:14:28;47588.28;;;-141.97;65.57
7018;BME280;3549;42.162;24.726;2023-04-10T05:16:54;47645.94;;;-141.97;64.52
7018;BME280;3549;42.162;24.726;2023-04-10T05:19:19;47642.09;;;-141.97;64.27
7018;BME280;3549;42.162;24.726;2023-04-10T05:21:45;47663.22;;;-141.97;63.88
7018;BME280;3549;42.162;24.726;2023-04-10T05:24:10;47599.81;;;-141.97;63.67
7018;BME280;3549;42.162;24.726;2023-04-10T05:26:36;47761.25;;;-141.97;64.28
7018;BME280;3549;42.162;24.726;2023-04-10T05:29:01;47676.69;;;-141.97;64.25
7018;BME280;3549;42.162;24.726;2023-04-10T05:31:26;47624.78;;;-141.97;64.89
7018;BME280;3549;42.162;24.726;2023-04-10T05:33:52;47607.50;;;-141.97;65.04
7018;BME280;3549;42.162;24.726;2023-04-10T05:36:17;47692.06;;;-141.97;65.12
7018;BME280;3549;42.162;24.726;2023-04-10T05:38:43;47630.56;;;-141.97;63.97
7018;BME280;3549;42.162;24.726;2023-04-10T05:41:08;47692.06;;;-141.97;63.14
7018;BME280;3549;42.162;24.726;2023-04-10T05:43:33;47738.19;;;-141.97;63.59
7018;BME280;3549;42.162;24.726;2023-04-10T05:45:59;47657.47;;;-141.97;64.66
7018;BME280;3549;42.162;24.726;2023-04-10T05:48:25;47653.63;;;-141.97;64.28
7018;BME280;3549;42.162;24.726;2023-04-10T05:50:51;47565.22;;;-141.97;62.32
7018;BME280;3549;42.162;24.726;2023-04-10T05:53:18;47622.88;;;-141.97;62.13
7018;BME280;3549;42.162;24.726;2023-04-10T05:55:44;47674.78;;;-141.97;59.43
7018;BME280;3549;42.162;24.726;2023-04-10T05:58:10;47526.75;;;-141.97;59.86
7018;BME280;3549;42.162;24.726;2023-04-10T06:00:35;47674.78;;;-141.97;60.08
7018;BME280;3549;42.162;24.726;2023-04-10T06:03:02;47684.38;;;-141.97;59.17
7018;BME280;3549;42.162;24.726;2023-04-10T06:05:27;47611.34;;;-141.97;59.40
7018;BME280;3549;42.162;24.726;2023-04-10T06:07:53;47736.28;;;-141.97;58.67
7018;BME280;3549;42.162;24.726;2023-04-10T06:10:18;47649.78;;;-141.97;57.26
7018;BME280;3549;42.162;24.726;2023-04-10T06:12:44;47507.53;;;-141.97;56.59
7018;BME280;3549;42.162;24.726;2023-04-10T06:15:09;47763.19;;;-141.97;55.78
7018;BME280;3549;42.162;24.726;2023-04-10T06:17:40;47613.25;;;-141.97;54.23
7018;BME280;3549;42.162;24.726;2023-04-10T06:20:07;47626.72;;;-141.97;53.09
7018;BME280;3549;42.162;24.726;2023-04-10T06:22:32;47653.63;;;-141.97;52.33
7018;BME280;3549;42.162;24.726;2023-04-10T06:24:58;47665.16;;;-141.97;51.01
7018;BME280;3549;42.162;24.726;2023-04-10T06:27:23;47669.00;;;-141.97;51.20
7018;BME280;3549;42.162;24.726;2023-04-10T06:29:49;47624.78;;;-141.97;50.78
7018;BME280;3549;42.162;24.726;2023-04-10T06:32:14;47657.47;;;-141.97;49.47
7018;BME280;3549;42.162;24.726;2023-04-10T06:34:40;47749.72;;;-141.97;49.16
7018;BME280;3549;42.162;24.726;2023-04-10T06:37:05;47622.88;;;-141.97;49.00
7018;BME280;3549;42.162;24.726;2023-04-10T06:39:30;47670.91;;;-141.97;47.90
7018;BME280;3549;42.162;24.726;2023-04-10T06:41:56;47603.66;;;-141.97;47.75
7018;BME280;3549;42.162;24.726;2023-04-10T06:44:22;47669.00;;;-141.97;47.50
7018;BME280;3549;42.162;24.726;2023-04-10T06:46:47;47542.16;;;-141.97;47.22
7018;BME280;3549;42.162;24.726;2023-04-10T06:49:13;47672.84;;;-141.97;46.65
7018;BME280;3549;42.162;24.726;2023-04-10T06:51:38;47669.00;;;-141.97;46.13
7018;BME280;3549;42.162;24.726;2023-04-10T06:54:03;47572.91;;;-141.97;45.02
7018;BME280;3549;42.162;24.726;2023-04-10T06:56:29;47647.84;;;-141.97;44.15
7018;BME280;3549;42.162;24.726;2023-04-10T06:58:54;47647.84;;;-141.97;43.59
7018;BME280;3549;42.162;24.726;2023-04-10T07:01:20;47672.84;;;-141.97;43.55
7018;BME280;3549;42.162;24.726;2023-04-10T07:03:45;47615.19;;;-141.97;43.00
7018;BME280;3549;42.162;24.726;2023-04-10T07:06:11;47619.03;;;-141.97;42.02
7018;BME280;3549;42.162;24.726;2023-04-10T07:08:37;47695.91;;;-141.97;42.25
7018;BME280;3549;42.162;24.726;2023-04-10T07:11:02;47622.88;;;-141.97;41.69
7018;BME280;3549;42.162;24.726;2023-04-10T07:13:27;47644.00;;;-141.97;41.18
7018;BME280;3549;42.162;24.726;2023-04-10T07:15:53;47763.19;;;-141.97;40.11
7018;BME280;3549;42.162;24.726;2023-04-10T07:18:18;47549.84;;;-141.97;40.73
7018;BME280;3549;42.162;24.726;2023-04-10T07:20:44;47657.47;;;-141.97;40.16
7018;BME280;3549;42.162;24.726;2023-04-10T07:23:09;47736.28;;;-141.97;38.75
7018;BME280;3549;42.162;24.726;2023-04-10T07:25:35;47611.34;;;-141.97;38.58
7018;BME280;3549;42.162;24.726;2023-04-10T07:28:01;47628.63;;;-141.97;38.38
7018;BME280;3549;42.162;24.726;2023-04-10T07:30:26;47634.41;;;-141.97;39.78
7018;BME280;3549;42.162;24.726;2023-04-10T07:32:51;47624.78;;;-141.97;39.36
7018;BME280;3549;42.162;24.726;2023-04-10T07:35:17;47647.84;;;-141.97;39.68
7018;BME280;3549;42.162;24.726;2023-04-10T07:37:42;47647.84;;;-141.97;40.03
7018;BME280;3549;42.162;24.726;2023-04-10T07:40:08;47570.97;;;-141.97;38.90
7018;BME280;3549;42.162;24.726;2023-04-10T07:42:34;47670.91;;;-141.97;38.39
7018;BME280;3549;42.162;24.726;2023-04-10T07:45:00;47644.00;;;-141.97;38.25
7018;BME280;3549;42.162;24.726;2023-04-10T07:47:25;47549.84;;;-141.97;37.64
7018;BME280;3549;42.162;24.726;2023-04-10T07:49:51;47759.34;;;-141.97;37.86
7018;BME280;3549;42.162;24.726;2023-04-10T07:52:16;47569.06;;;-141.97;37.33
7018;BME280;3549;42.162;24.726;2023-04-10T07:54:42;47601.72;;;-141.97;36.57
7018;BME280;3549;42.162;24.726;2023-04-10T07:57:07;47594.03;;;-141.97;35.60
7018;BME280;3549;42.162;24.726;2023-04-10T07:59:33;47615.19;;;-141.97;35.03
7018;BME280;3549;42.162;24.726;2023-04-10T08:01:58;47469.09;;;-141.97;34.76
7018;BME280;3549;42.162;24.726;2023-04-10T08:04:23;47515.22;;;-141.97;34.86
7018;BME280;3549;42.162;24.726;2023-04-10T08:06:49;47757.41;;;-141.97;34.55
7018;BME280;3549;42.162;24.726;2023-04-10T08:09:14;47605.56;;;-141.97;34.02
7018;BME280;3549;42.162;24.726;2023-04-10T08:11:39;47607.50;;;-141.97;33.68
7018;BME280;3549;42.162;24.726;2023-04-10T08:14:05;47457.56;;;-141.97;33.17
7018;BME280;3549;42.162;24.726;2023-04-10T08:16:32;47586.34;;;-141.97;32.13
7018;BME280;3549;42.162;24.726;2023-04-10T08:18:59;47599.81;;;-141.97;32.15
7018;BME280;3549;42.162;24.726;2023-04-10T08:21:27;47430.66;;;-141.97;32.19
7018;BME280;3549;42.162;24.726;2023-04-10T08:23:53;47711.28;;;-141.97;32.95
7018;BME280;3549;42.162;24.726;2023-04-10T08:26:19;47647.84;;;-141.97;32.83
7018;BME280;3549;42.162;24.726;2023-04-10T08:28:49;47574.81;;;-141.97;32.90
7018;BME280;3549;42.162;24.726;2023-04-10T08:31:19;47594.03;;;-141.97;33.11
7018;BME280;3549;42.162;24.726;2023-04-10T08:33:46;47592.13;;;-141.97;33.59
7018;BME280;3549;42.162;24.726;2023-04-10T08:36:13;47544.06;;;-141.97;33.81
7018;BME280;3549;42.162;24.726;2023-04-10T08:38:42;47592.13;;;-141.97;34.27
7018;BME280;3549;42.162;24.726;2023-04-10T08:41:16;47611.34;;;-141.97;34.68
7018;BME280;3549;42.162;24.726;2023-04-10T08:43:41;47599.81;;;-141.97;34.14
7018;BME280;3549;42.162;24.726;2023-04-10T08:46:08;47611.34;;;-141.97;33.95
7018;BME280;3549;42.162;24.726;2023-04-10T08:48:52;47597.88;;;-141.97;33.58
7018;BME280;3549;42.162;24.726;2023-04-10T08:51:21;47567.13;;;-141.97;33.44
7018;BME280;3549;42.162;24.726;2023-04-10T08:53:54;47595.97;;;-141.97;33.72
7018;BME280;3549;42.162;24.726;2023-04-10T08:56:23;47634.41;;;-141.97;33.87
7018;BME280;3549;42.162;24.726;2023-04-10T08:58:50;47572.91;;;-141.97;33.78
7018;BME280;3549;42.162;24.726;2023-04-10T09:01:18;47584.44;;;-141.97;34.57
7018;BME280;3549;42.162;24.726;2023-04-10T09:03:46;47422.97;;;-141.97;34.65
7018;BME280;3549;42.162;24.726;2023-04-10T09:06:12;47588.28;;;-141.97;34.41
7018;BME280;3549;42.162;24.726;2023-04-10T09:08:37;47605.56;;;-141.97;34.49
7018;BME280;3549;42.162;24.726;2023-04-10T09:11:04;47636.31;;;-141.97;34.21
7018;BME280;3549;42.162;24.726;2023-04-10T09:16:02;47578.66;;;-141.97;33.64
7018;BME280;3549;42.162;24.726;2023-04-10T09:18:48;47624.78;;;-141.97;33.78
7018;BME280;3549;42.162;24.726;2023-04-10T09:21:18;47569.06;;;-141.97;33.60
7018;BME280;3549;42.162;24.726;2023-04-10T09:23:44;47580.59;;;-141.97;33.31
7018;BME280;3549;42.162;24.726;2023-04-10T09:26:23;47586.34;;;-141.97;33.22
7018;BME280;3549;42.162;24.726;2023-04-10T09:31:43;47707.44;;;-141.97;33.35
7018;BME280;3549;42.162;24.726;2023-04-10T09:34:12;47601.72;;;-141.97;33.30
7018;BME280;3549;42.162;24.726;2023-04-10T09:36:39;47476.78;;;-141.97;33.46
7018;BME280;3549;42.162;24.726;2023-04-10T09:39:06;47557.53;;;-141.97;33.64
7018;BME280;3549;42.162;24.726;2023-04-10T09:41:32;47480.63;;;-141.97;33.74
7018;BME280;3549;42.162;24.726;2023-04-10T09:44:06;47590.19;;;-141.97;34.24
7018;BME280;3549;42.162;24.726;2023-04-10T09:46:32;47594.03;;;-141.97;34.02
7018;BME280;3549;42.162;24.726;2023-04-10T09:48:58;47595.97;;;-141.97;34.27
7018;BME280;3549;42.162;24.726;2023-04-10T09:51:33;47586.34;;;-141.97;34.55
7018;BME280;3549;42.162;24.726;2023-04-10T09:53:59;47609.41;;;-141.97;35.15
7018;BME280;3549;42.162;24.726;2023-04-10T09:56:25;47642.09;;;-141.97;35.11
7018;BME280;3549;42.162;24.726;2023-04-10T09:58:56;47592.13;;;-141.97;35.78
7018;BME280;3549;42.162;24.726;2023-04-10T10:01:23;47580.59;;;-141.97;35.61
7018;BME280;3549;42.162;24.726;2023-04-10T10:03:49;47553.69;;;-141.97;36.12
7018;BME280;3549;42.162;24.726;2023-04-10T10:06:15;47561.38;;;-141.97;35.92
7018;BME280;3549;42.162;24.726;2023-04-10T10:08:41;47595.97;;;-141.97;36.26
7018;BME280;3549;42.162;24.726;2023-04-10T10:11:07;47565.22;;;-141.97;36.09
7018;BME280;3549;42.162;24.726;2023-04-10T10:13:51;47619.03;;;-141.97;36.24
7018;BME280;3549;42.162;24.726;2023-04-10T10:16:38;47534.44;;;-141.97;36.35
7018;BME280;3549;42.162;24.726;2023-04-10T10:19:15;47553.69;;;-141.97;36.44
7018;BME280;3549;42.162;24.726;2023-04-10T10:21:44;47592.13;;;-141.97;36.50
7018;BME280;3549;42.162;24.726;2023-04-10T10:24:12;47547.91;;;-141.97;36.70
7018;BME280;3549;42.162;24.726;2023-04-10T10:26:38;47595.97;;;-141.97;36.67
7018;BME280;3549;42.162;24.726;2023-04-10T10:29:08;47622.88;;;-141.97;37.02
7018;BME280;3549;42.162;24.726;2023-04-10T10:31:37;47626.72;;;-141.97;37.15
7018;BME280;3549;42.162;24.726;2023-04-10T10:34:03;47592.13;;;-141.97;37.81
7018;BME280;3549;42.162;24.726;2023-04-10T10:36:32;47624.78;;;-141.97;37.87
7018;BME280;3549;42.162;24.726;2023-04-10T10:39:31;47572.91;;;-141.97;37.74
7018;BME280;3549;42.162;24.726;2023-04-10T10:42:29;47615.19;;;-141.97;38.85
7018;BME280;3549;42.162;24.726;2023-04-10T10:47:26;47601.72;;;-141.97;38.61
7018;BME280;3549;42.162;24.726;2023-04-10T10:50:04;47592.13;;;-141.97;38.65
7018;BME280;3549;42.162;24.726;2023-04-10T10:52:42;47634.41;;;-141.97;39.39
7018;BME280;3549;42.162;24.726;2023-04-10T10:58:08;47561.38;;;-141.97;38.53
7018;BME280;3549;42.162;24.726;2023-04-10T11:08:53;47645.94;;;-141.97;38.30
7018;BME280;3549;42.162;24.726;2023-04-10T11:11:25;47605.56;;;-141.97;38.29
7018;BME280;3549;42.162;24.726;2023-04-10T11:16:20;47576.75;;;-141.97;37.86
7018;BME280;3549;42.162;24.726;2023-04-10T11:21:13;47609.41;;;-141.97;38.09
7018;BME280;3549;42.162;24.726;2023-04-10T11:34:20;47638.25;;;-141.97;37.96
7018;BME280;3549;42.162;24.726;2023-04-10T11:36:46;47580.59;;;-141.97;37.71
7018;BME280;3549;42.162;24.726;2023-04-10T11:39:16;47784.34;;;-141.97;38.00
7018;BME280;3549;42.162;24.726;2023-04-10T11:41:47;47609.41;;;-141.97;37.85
7018;BME280;3549;42.162;24.726;2023-04-10T11:44:13;47628.63;;;-141.97;38.32
7018;BME280;3549;42.162;24.726;2023-04-10T11:46:41;47619.03;;;-141.97;38.09
7018;BME280;3549;42.162;24.726;2023-04-10T11:49:09;47638.25;;;-141.97;38.23
7018;BME280;3549;42.162;24.726;2023-04-10T11:51:38;47597.88;;;-141.97;37.83
7018;BME280;3549;42.162;24.726;2023-04-10T11:57:06;47615.19;;;-141.97;39.50
7018;BME280;3549;42.162;24.726;2023-04-10T11:59:37;47620.94;;;-141.97;40.49
7018;BME280;3549;42.162;24.726;2023-04-10T12:04:32;47684.38;;;-141.97;41.62
7018;BME280;3549;42.162;24.726;2023-04-10T12:06:57;47657.47;;;-141.97;41.66
7018;BME280;3549;42.162;24.726;2023-04-10T12:09:23;47595.97;;;-141.97;41.54
7018;BME280;3549;42.162;24.726;2023-04-10T12:14:18;47599.81;;;-141.97;40.89
7018;BME280;3549;42.162;24.726;2023-04-10T12:16:44;47638.25;;;-141.97;40.18
7018;BME280;3549;42.162;24.726;2023-04-10T12:19:11;47619.03;;;-141.97;39.50
7018;BME280;3549;42.162;24.726;2023-04-10T12:21:37;47620.94;;;-141.97;40.34
7018;BME280;3549;42.162;24.726;2023-04-10T12:24:04;47578.66;;;-141.97;39.42
7018;BME280;3549;42.162;24.726;2023-04-10T12:26:29;47599.81;;;-141.97;38.50
7018;BME280;3549;42.162;24.726;2023-04-10T12:28:56;47613.25;;;-141.97;38.64
7018;BME280;3549;42.162;24.726;2023-04-10T12:31:27;47592.13;;;-141.97;38.58
7018;BME280;3549;42.162;24.726;2023-04-10T12:33:52;47590.19;;;-141.97;38.07
7018;BME280;3549;42.162;24.726;2023-04-10T12:36:31;47549.84;;;-141.97;36.62
7018;BME280;3549;42.162;24.726;2023-04-10T12:39:00;47574.81;;;-141.97;35.83
7018;BME280;3549;42.162;24.726;2023-04-10T12:41:28;47728.59;;;-141.97;36.13
7018;BME280;3549;42.162;24.726;2023-04-10T12:44:09;47592.13;;;-141.97;36.33
7018;BME280;3549;42.162;24.726;2023-04-10T12:46:35;47559.44;;;-141.97;36.38
7018;BME280;3549;42.162;24.726;2023-04-10T12:49:14;47574.81;;;-141.97;35.94
7018;BME280;3549;42.162;24.726;2023-04-10T12:51:45;47619.03;;;-141.97;37.05
7018;BME280;3549;42.162;24.726;2023-04-10T12:54:26;47632.47;;;-141.97;36.98
7018;BME280;3549;42.162;24.726;2023-04-10T12:56:52;47557.53;;;-141.97;37.28
7018;BME280;3549;42.162;24.726;2023-04-10T12:59:18;47603.66;;;-141.97;36.51
7018;BME280;3549;42.162;24.726;2023-04-10T13:01:43;47599.81;;;-141.97;36.07
7018;BME280;3549;42.162;24.726;2023-04-10T13:04:08;47620.94;;;-141.97;35.43
7018;BME280;3549;42.162;24.726;2023-04-10T13:06:41;47530.59;;;-141.97;35.13
7018;BME280;3549;42.162;24.726;2023-04-10T13:09:07;47561.38;;;-141.97;34.99
7018;BME280;3549;42.162;24.726;2023-04-10T13:11:32;47611.34;;;-141.97;35.53
7018;BME280;3549;42.162;24.726;2023-04-10T13:13:57;47465.25;;;-141.97;36.27
7018;BME280;3549;42.162;24.726;2023-04-10T13:16:23;47597.88;;;-141.97;37.02
7018;BME280;3549;42.162;24.726;2023-04-10T13:18:48;47713.22;;;-141.97;37.37
7018;BME280;3549;42.162;24.726;2023-04-10T13:21:14;47603.66;;;-141.97;36.34
7018;BME280;3549;42.162;24.726;2023-04-10T13:23:42;47557.53;;;-141.97;34.89
7018;BME280;3549;42.162;24.726;2023-04-10T13:26:08;47586.34;;;-141.97;34.91
7018;BME280;3549;42.162;24.726;2023-04-10T13:28:33;47561.38;;;-141.97;35.17
7018;BME280;3549;42.162;24.726;2023-04-10T13:30:59;47595.97;;;-141.97;36.09
7018;BME280;3549;42.162;24.726;2023-04-10T13:33:24;47611.34;;;-141.97;36.92
7018;BME280;3549;42.162;24.726;2023-04-10T13:35:50;47530.59;;;-141.97;36.78
7018;BME280;3549;42.162;24.726;2023-04-10T13:38:15;47778.56;;;-141.97;36.99
7018;BME280;3549;42.162;24.726;2023-04-10T13:40:40;47609.41;;;-141.97;36.77
7018;BME280;3549;42.162;24.726;2023-04-10T13:43:06;47574.81;;;-141.97;36.87
7018;BME280;3549;42.162;24.726;2023-04-10T13:45:31;47611.34;;;-141.97;37.28